Time;durP1;ratioP1;P1;durP2;ratioP2;P2;SDS_P1;SDS_P2;PMS_P1;PMS_P2;Temp;Humidity;BMP_temperature;BMP_pressure;BME280_temperature;BME280_humidity;BME280_pressure;Samples;Min_cycle;Max_cycle;Signal;HPM_P1;HPM_P2
2023/08/15 00:01:54;;;;;;;;;;;13.00;99.90;;;;;;5107764;28;19962;-70
2023/08/15 00:04:21;;;;;;;;;;;13.00;99.90;;;;;;5081078;28;19960;-69
2023/08/15 00:06:47;;;;;;;;;;;13.10;99.90;;;;;;5093232;28;19908;-69
2023/08/15 00:09:14;;;;;;;;;;;13.20;99.90;;;;;;5093253;28;19924;-72
2023/08/15 00:11:41;;;;;;;;;;;13.30;99.90;;;;;;5100674;28;19922;-74
2023/08/15 00:14:07;;;;;;;;;;;13.30;99.90;;;;;;5111946;28;20273;-72
2023/08/15 00:16:34;;;;;;;;;;;13.30;99.90;;;;;;5111721;28;20002;-71
2023/08/15 00:19:02;;;;;;;;;;;13.50;99.90;;;;;;5110898;28;20419;-72
2023/08/15 00:21:29;;;;;;;;;;;13.70;99.90;;;;;;5092517;28;19937;-72
2023/08/15 00:23:56;;;;;;;;;;;13.70;99.90;;;;;;5111833;28;19916;-71
2023/08/15 00:26:22;;;;;;;;;;;13.70;99.90;;;;;;5112927;28;20352;-73
2023/08/15 00:28:49;;;;;;;;;;;13.80;99.90;;;;;;5100860;28;19920;-70
2023/08/15 00:31:15;;;;;;;;;;;13.80;99.90;;;;;;5106066;28;19916;-72
2023/08/15 00:33:42;;;;;;;;;;;13.90;99.90;;;;;;5113570;28;20006;-75
2023/08/15 00:36:09;;;;;;;;;;;13.90;99.90;;;;;;5095168;28;20364;-74
2023/08/15 00:38:35;;;;;;;;;;;14.10;99.90;;;;;;5112875;28;19912;-71
2023/08/15 00:41:02;;;;;;;;;;;14.20;99.90;;;;;;5096011;28;19915;-72
2023/08/15 00:43:28;;;;;;;;;;;14.30;99.90;;;;;;5097192;28;19963;-71
2023/08/15 00:45:55;;;;;;;;;;;14.40;99.90;;;;;;5093766;28;19920;-71
2023/08/15 00:48:22;;;;;;;;;;;14.50;99.90;;;;;;5092171;28;19916;-70
2023/08/15 00:50:53;;;;;;;;;;;14.70;99.90;;;;;;5099075;28;20269;-75
2023/08/15 00:53:20;;;;;;;;;;;14.80;99.90;;;;;;5113205;28;19996;-73
2023/08/15 00:55:47;;;;;;;;;;;14.90;99.90;;;;;;5112851;28;20361;-71
2023/08/15 00:58:14;;;;;;;;;;;15.00;99.90;;;;;;5108324;28;20007;-71
2023/08/15 01:00:41;;;;;;;;;;;15.20;99.90;;;;;;5102178;28;20284;-70
2023/08/15 01:03:09;;;;;;;;;;;15.40;99.90;;;;;;5108615;28;19954;-72
2023/08/15 01:05:36;;;;;;;;;;;15.50;99.90;;;;;;5112672;28;19944;-69
2023/08/15 01:08:03;;;;;;;;;;;15.60;99.90;;;;;;5112659;28;19923;-72
2023/08/15 01:10:29;;;;;;;;;;;15.60;99.90;;;;;;5112288;28;19907;-71
2023/08/15 01:12:59;;;;;;;;;;;15.60;99.90;;;;;;5113026;28;19911;-71
2023/08/15 01:15:29;;;;;;;;;;;15.70;99.90;;;;;;5112902;28;20002;-70
2023/08/15 01:18:02;;;;;;;;;;;15.80;99.90;;;;;;5112444;28;19916;-70
2023/08/15 01:20:31;;;;;;;;;;;15.80;99.90;;;;;;5116753;27;19937;-72
2023/08/15 01:23:00;;;;;;;;;;;15.80;99.90;;;;;;5120493;27;20253;-71
2023/08/15 01:25:27;;;;;;;;;;;15.70;99.90;;;;;;5111450;28;19919;-70
2023/08/15 01:27:54;;;;;;;;;;;15.80;99.90;;;;;;5112257;28;19923;-69
2023/08/15 01:30:22;;;;;;;;;;;15.80;99.90;;;;;;5101211;28;19908;-72
2023/08/15 01:32:48;;;;;;;;;;;15.70;99.90;;;;;;5099899;28;20367;-71
2023/08/15 01:35:33;;;;;;;;;;;15.70;99.90;;;;;;5112936;28;19912;-70
2023/08/15 01:38:06;;;;;;;;;;;15.80;99.90;;;;;;5100817;28;19997;-70
2023/08/15 01:40:34;;;;;;;;;;;16.10;99.90;;;;;;5105707;28;19918;-70
2023/08/15 01:43:02;;;;;;;;;;;16.30;99.90;;;;;;5100120;28;19911;-68
2023/08/15 01:45:29;;;;;;;;;;;16.60;99.90;;;;;;5111611;28;19922;-70
2023/08/15 01:47:56;;;;;;;;;;;16.60;99.90;;;;;;5112161;28;20079;-69
2023/08/15 01:50:23;;;;;;;;;;;16.60;99.90;;;;;;5099812;28;20007;-70
2023/08/15 01:52:49;;;;;;;;;;;16.60;99.90;;;;;;5092068;28;19908;-72
2023/08/15 01:55:16;;;;;;;;;;;16.40;99.90;;;;;;5091797;28;20357;-74
2023/08/15 01:57:43;;;;;;;;;;;16.40;99.90;;;;;;5105513;28;19916;-69
2023/08/15 02:00:09;;;;;;;;;;;16.70;99.90;;;;;;5090769;28;19916;-72
2023/08/15 02:02:36;;;;;;;;;;;16.90;99.90;;;;;;5105131;28;20260;-74
2023/08/15 02:05:03;;;;;;;;;;;17.10;99.90;;;;;;5100901;28;19908;-70
2023/08/15 02:07:29;;;;;;;;;;;17.30;99.90;;;;;;5091377;28;19912;-69
2023/08/15 02:09:56;;;;;;;;;;;17.50;99.90;;;;;;5092153;28;20021;-73
2023/08/15 02:12:23;;;;;;;;;;;17.70;99.90;;;;;;5091311;28;19912;-76
2023/08/15 02:14:49;;;;;;;;;;;17.90;99.90;;;;;;5091569;28;19955;-71
2023/08/15 02:17:16;;;;;;;;;;;17.80;99.90;;;;;;5091514;28;19912;-77
2023/08/15 02:19:43;;;;;;;;;;;17.70;99.90;;;;;;5096811;28;19987;-74
2023/08/15 02:22:09;;;;;;;;;;;17.80;99.90;;;;;;5098371;28;19931;-71
2023/08/15 02:24:36;;;;;;;;;;;18.00;99.90;;;;;;5110351;28;19916;-71
2023/08/15 02:27:02;;;;;;;;;;;18.30;99.90;;;;;;5115898;28;19915;-75
2023/08/15 02:29:29;;;;;;;;;;;18.40;99.90;;;;;;5097081;28;19974;-74
2023/08/15 02:31:56;;;;;;;;;;;18.50;99.90;;;;;;5101376;28;19927;-70
2023/08/15 02:34:23;;;;;;;;;;;18.60;99.90;;;;;;5115270;28;20310;-68
2023/08/15 02:36:49;;;;;;;;;;;18.60;99.90;;;;;;5115392;28;19908;-70
2023/08/15 02:39:16;;;;;;;;;;;18.60;99.90;;;;;;5113170;28;20307;-70
2023/08/15 02:41:43;;;;;;;;;;;18.60;99.90;;;;;;5118295;27;20002;-69
2023/08/15 02:44:10;;;;;;;;;;;18.90;99.90;;;;;;5120279;27;19968;-70
2023/08/15 02:46:37;;;;;;;;;;;19.80;99.90;;;;;;5116261;28;19930;-76
2023/08/15 02:49:06;;;;;;;;;;;20.70;98.90;;;;;;5115300;28;19962;-71
2023/08/15 02:51:44;;;;;;;;;;;21.30;96.90;;;;;;5115532;28;19935;-72
2023/08/15 02:54:12;;;;;;;;;;;21.50;96.20;;;;;;5097314;28;19908;-70
2023/08/15 02:56:58;;;;;;;;;;;21.80;95.30;;;;;;5107327;28;20277;-70
2023/08/15 02:59:24;;;;;;;;;;;21.30;95.00;;;;;;5076331;28;19935;-68
2023/08/15 03:01:51;;;;;;;;;;;20.70;95.50;;;;;;5093792;28;19916;-73
2023/08/15 03:04:21;;;;;;;;;;;20.10;96.20;;;;;;5077501;28;19919;-75
2023/08/15 03:06:48;;;;;;;;;;;19.40;97.40;;;;;;5094872;28;19920;-70
2023/08/15 03:09:16;;;;;;;;;;;19.10;98.50;;;;;;5092986;28;20466;-73
2023/08/15 03:11:44;;;;;;;;;;;20.40;98.20;;;;;;5059873;28;19913;-71
2023/08/15 03:14:10;;;;;;;;;;;22.10;94.70;;;;;;5093912;28;19915;-71
2023/08/15 03:16:38;;;;;;;;;;;24.00;93.10;;;;;;5094459;28;19908;-70
2023/08/15 03:19:06;;;;;;;;;;;25.50;90.70;;;;;;5075865;28;20010;-71
2023/08/15 03:21:34;;;;;;;;;;;26.20;87.90;;;;;;5094230;28;19915;-71
2023/08/15 03:24:01;;;;;;;;;;;26.70;83.80;;;;;;5074261;28;19915;-71
2023/08/15 03:26:28;;;;;;;;;;;27.10;82.90;;;;;;5092008;28;19953;-73
2023/08/15 03:29:01;;;;;;;;;;;27.20;82.20;;;;;;5092401;28;19916;-70
2023/08/15 03:31:28;;;;;;;;;;;27.20;80.70;;;;;;5091753;28;19908;-77
2023/08/15 03:33:55;;;;;;;;;;;27.90;79.20;;;;;;5108694;28;20396;-71
2023/08/15 03:36:23;;;;;;;;;;;28.00;78.50;;;;;;5093392;28;20465;-73
2023/08/15 03:38:51;;;;;;;;;;;28.70;75.60;;;;;;5095914;28;19912;-72
2023/08/15 03:41:17;;;;;;;;;;;27.80;76.20;;;;;;5095517;28;20288;-70
2023/08/15 03:43:46;;;;;;;;;;;26.00;77.90;;;;;;5093510;28;20369;-75
2023/08/15 03:46:14;;;;;;;;;;;24.10;83.00;;;;;;5093818;28;20369;-73
2023/08/15 03:48:44;;;;;;;;;;;22.70;87.90;;;;;;5093788;28;20369;-72
2023/08/15 03:51:15;;;;;;;;;;;21.70;90.50;;;;;;5093634;28;19987;-73
2023/08/15 03:53:43;;;;;;;;;;;20.90;91.60;;;;;;5074474;28;19964;-71
2023/08/15 03:56:11;;;;;;;;;;;20.00;93.30;;;;;;5076171;28;19915;-71
2023/08/15 03:58:39;;;;;;;;;;;19.40;94.60;;;;;;5093619;28;19961;-72
2023/08/15 04:01:05;;;;;;;;;;;19.10;95.40;;;;;;5075617;28;20384;-73
2023/08/15 04:03:35;;;;;;;;;;;19.40;95.80;;;;;;5093915;28;19908;-73
2023/08/15 04:06:06;;;;;;;;;;;19.70;94.60;;;;;;5075599;28;19916;-74
2023/08/15 04:08:33;;;;;;;;;;;19.80;94.80;;;;;;5075682;28;19920;-72
2023/08/15 04:11:00;;;;;;;;;;;19.90;94.90;;;;;;5092500;28;19908;-72
2023/08/15 04:13:28;;;;;;;;;;;20.50;95.00;;;;;;5075000;28;19943;-73
2023/08/15 04:15:57;;;;;;;;;;;21.90;93.90;;;;;;5098598;28;19915;-80
2023/08/15 04:18:23;;;;;;;;;;;23.80;90.90;;;;;;5093866;28;20596;-78
2023/08/15 04:20:50;;;;;;;;;;;25.80;87.00;;;;;;5103706;28;19916;-80
2023/08/15 04:23:17;;;;;;;;;;;26.80;82.60;;;;;;5097174;28;19912;-71
2023/08/15 04:25:45;;;;;;;;;;;27.10;80.90;;;;;;5107414;28;19912;-77
2023/08/15 04:28:12;;;;;;;;;;;27.40;79.70;;;;;;5102695;28;19927;-74
2023/08/15 04:30:43;;;;;;;;;;;27.70;78.20;;;;;;5113247;28;20268;-77
2023/08/15 04:33:11;;;;;;;;;;;28.40;77.30;;;;;;5112765;28;19912;-77
2023/08/15 04:35:39;;;;;;;;;;;28.80;76.20;;;;;;5111569;28;19914;-74
2023/08/15 04:38:06;;;;;;;;;;;29.00;74.80;;;;;;5094229;28;20290;-75
2023/08/15 04:40:40;;;;;;;;;;;28.60;75.00;;;;;;5110485;28;19907;-74
2023/08/15 04:43:09;;;;;;;;;;;28.50;75.00;;;;;;5111438;28;19919;-76
2023/08/15 04:45:45;;;;;;;;;;;28.90;74.20;;;;;;5093413;28;19998;-76
2023/08/15 04:48:12;;;;;;;;;;;28.30;73.40;;;;;;5112367;28;19939;-73
2023/08/15 04:50:40;;;;;;;;;;;26.60;76.50;;;;;;5085526;28;20486;-74
2023/08/15 04:53:09;;;;;;;;;;;26.40;78.80;;;;;;5087010;28;19999;-78
2023/08/15 04:55:37;;;;;;;;;;;26.30;78.40;;;;;;5111616;28;19920;-73
2023/08/15 04:58:04;;;;;;;;;;;26.40;78.50;;;;;;5112496;28;19955;-74
2023/08/15 05:00:32;;;;;;;;;;;25.70;79.60;;;;;;5100445;28;19915;-76
2023/08/15 05:02:59;;;;;;;;;;;24.50;82.80;;;;;;5102834;28;19916;-78
2023/08/15 05:05:26;;;;;;;;;;;23.30;85.90;;;;;;5090291;28;19920;-78
2023/08/15 05:07:55;;;;;;;;;;;22.40;88.40;;;;;;5076296;28;20296;-74
2023/08/15 05:10:23;;;;;;;;;;;21.70;90.10;;;;;;5111475;28;19916;-74
2023/08/15 05:12:50;;;;;;;;;;;21.50;90.30;;;;;;5085501;28;19912;-75
2023/08/15 05:15:17;;;;;;;;;;;21.10;91.00;;;;;;5102358;28;20295;-78
2023/08/15 05:17:44;;;;;;;;;;;20.80;91.60;;;;;;5110974;28;19965;-76
2023/08/15 05:20:12;;;;;;;;;;;20.70;92.40;;;;;;5110206;28;19939;-76
2023/08/15 05:22:39;;;;;;;;;;;21.00;92.30;;;;;;5110455;28;19912;-75
2023/08/15 05:25:06;;;;;;;;;;;21.70;92.30;;;;;;5105156;28;19916;-72
2023/08/15 05:27:34;;;;;;;;;;;23.20;90.30;;;;;;5084071;28;20371;-75
2023/08/15 05:30:03;;;;;;;;;;;24.60;85.30;;;;;;5110818;28;19919;-75
2023/08/15 05:32:30;;;;;;;;;;;24.80;83.00;;;;;;5111921;28;19919;-74
2023/08/15 05:34:58;;;;;;;;;;;24.00;83.80;;;;;;5106646;28;19923;-77
2023/08/15 05:37:27;;;;;;;;;;;23.10;86.40;;;;;;5089203;28;20613;-74
2023/08/15 05:40:04;;;;;;;;;;;22.60;87.80;;;;;;5111229;28;19908;-79
2023/08/15 05:42:34;;;;;;;;;;;22.90;85.80;;;;;;5109095;28;19908;-74
2023/08/15 05:45:04;;;;;;;;;;;22.20;88.60;;;;;;5087120;28;19934;-74
2023/08/15 05:47:31;;;;;;;;;;;21.50;89.80;;;;;;5091880;28;20284;-69
2023/08/15 05:50:01;;;;;;;;;;;20.70;91.40;;;;;;5111781;28;19995;-72
2023/08/15 05:52:35;;;;;;;;;;;20.20;93.10;;;;;;5090732;28;19908;-72
2023/08/15 05:55:23;;;;;;;;;;;20.10;93.30;;;;;;5108982;28;19911;-73
2023/08/15 05:57:54;;;;;;;;;;;19.60;94.20;;;;;;5103276;28;19915;-79
2023/08/15 06:00:22;;;;;;;;;;;19.10;95.10;;;;;;5113660;28;20390;-79
2023/08/15 06:02:48;;;;;;;;;;;18.80;96.30;;;;;;5113839;27;19919;-76
2023/08/15 06:05:18;;;;;;;;;;;19.00;97.40;;;;;;5106408;28;19912;-70
2023/08/15 06:07:50;;;;;;;;;;;19.40;95.80;;;;;;5106798;28;19924;-69
2023/08/15 06:10:21;;;;;;;;;;;19.20;95.70;;;;;;5116448;28;19977;-69
2023/08/15 06:12:53;;;;;;;;;;;19.50;96.60;;;;;;5094153;27;19916;-75
2023/08/15 06:15:20;;;;;;;;;;;20.70;94.70;;;;;;5105957;28;19934;-76
2023/08/15 06:17:52;;;;;;;;;;;22.10;92.90;;;;;;5108626;28;19911;-74
2023/08/15 06:20:19;;;;;;;;;;;22.90;91.90;;;;;;5094734;28;19907;-73
2023/08/15 06:22:53;;;;;;;;;;;23.60;90.30;;;;;;5093468;28;20608;-73
2023/08/15 06:25:24;;;;;;;;;;;23.80;89.30;;;;;;5112548;28;20045;-76
2023/08/15 06:27:55;;;;;;;;;;;23.70;88.70;;;;;;5113644;27;21383;-75
2023/08/15 06:30:22;;;;;;;;;;;23.60;89.40;;;;;;5115394;28;19911;-76
2023/08/15 06:32:52;;;;;;;;;;;23.20;90.10;;;;;;5108611;27;19920;-75
2023/08/15 06:35:19;;;;;;;;;;;22.60;90.20;;;;;;5106668;28;19912;-71
2023/08/15 06:37:46;;;;;;;;;;;21.60;91.40;;;;;;5097388;28;19912;-75
2023/08/15 06:40:13;;;;;;;;;;;20.40;92.80;;;;;;5114962;28;19915;-70
2023/08/15 06:42:40;;;;;;;;;;;19.50;94.20;;;;;;5111542;28;20019;-73
2023/08/15 06:45:08;;;;;;;;;;;18.70;95.50;;;;;;5101913;28;19920;-74
2023/08/15 06:47:36;;;;;;;;;;;17.90;96.80;;;;;;5101326;28;19912;-74
2023/08/15 06:50:04;;;;;;;;;;;17.40;97.90;;;;;;5113979;27;19999;-74
2023/08/15 06:52:30;;;;;;;;;;;17.00;99.10;;;;;;5110263;28;19995;-78
2023/08/15 06:54:57;;;;;;;;;;;16.70;99.90;;;;;;5112061;27;19958;-75
2023/08/15 06:57:24;;;;;;;;;;;16.40;99.90;;;;;;5114181;28;19916;-74
2023/08/15 06:59:51;;;;;;;;;;;16.00;99.90;;;;;;5112156;28;19937;-72
2023/08/15 07:02:17;;;;;;;;;;;16.00;99.90;;;;;;5114702;28;20382;-71
2023/08/15 07:04:47;;;;;;;;;;;15.70;99.90;;;;;;5109468;28;19912;-72
2023/08/15 07:07:13;;;;;;;;;;;15.50;99.90;;;;;;5101756;27;19920;-72
2023/08/15 07:09:40;;;;;;;;;;;15.40;99.90;;;;;;5109261;28;19955;-70
2023/08/15 07:12:07;;;;;;;;;;;15.30;99.90;;;;;;5112790;28;19968;-79
2023/08/15 07:14:34;;;;;;;;;;;15.20;99.90;;;;;;5113321;28;19970;-73
2023/08/15 07:17:01;;;;;;;;;;;15.10;99.90;;;;;;5102128;27;19920;-75
2023/08/15 07:19:27;;;;;;;;;;;15.00;99.90;;;;;;5102835;28;19912;-76
2023/08/15 07:21:54;;;;;;;;;;;14.90;99.90;;;;;;5110203;28;19964;-78
2023/08/15 07:24:21;;;;;;;;;;;14.80;99.90;;;;;;5111792;28;19919;-76
2023/08/15 07:26:48;;;;;;;;;;;14.70;99.90;;;;;;5110011;28;19960;-74
2023/08/15 07:29:14;;;;;;;;;;;14.60;99.90;;;;;;5109681;28;19924;-75
2023/08/15 07:31:41;;;;;;;;;;;14.50;99.90;;;;;;5107161;28;19915;-70
2023/08/15 07:34:08;;;;;;;;;;;14.60;99.90;;;;;;5111980;28;19964;-69
2023/08/15 07:36:35;;;;;;;;;;;14.40;99.90;;;;;;5108154;28;19922;-73
2023/08/15 07:39:01;;;;;;;;;;;14.40;99.90;;;;;;5112305;28;20289;-69
2023/08/15 07:41:28;;;;;;;;;;;14.40;99.90;;;;;;5114800;27;19935;-80
2023/08/15 07:43:55;;;;;;;;;;;14.30;99.90;;;;;;5118123;28;19920;-75
2023/08/15 07:46:21;;;;;;;;;;;14.20;99.90;;;;;;5116807;28;20229;-75
2023/08/15 07:48:48;;;;;;;;;;;14.30;99.90;;;;;;5111223;28;19935;-73
2023/08/15 07:51:15;;;;;;;;;;;14.10;99.90;;;;;;5110516;28;19916;-71
2023/08/15 07:53:42;;;;;;;;;;;14.10;99.90;;;;;;5113112;28;19916;-71
2023/08/15 07:56:09;;;;;;;;;;;14.10;99.90;;;;;;5105765;28;19916;-76
2023/08/15 07:58:35;;;;;;;;;;;14.10;99.90;;;;;;5112017;28;19961;-71
2023/08/15 08:01:02;;;;;;;;;;;14.00;99.90;;;;;;5105534;28;19913;-71
2023/08/15 08:03:29;;;;;;;;;;;14.00;99.90;;;;;;5077226;28;19909;-71
2023/08/15 08:05:56;;;;;;;;;;;13.90;99.90;;;;;;5106050;28;19916;-70
2023/08/15 08:08:23;;;;;;;;;;;13.90;99.90;;;;;;5108237;28;19978;-71
2023/08/15 08:10:49;;;;;;;;;;;13.90;99.90;;;;;;5096472;28;19919;-68
2023/08/15 08:13:17;;;;;;;;;;;14.00;99.90;;;;;;5112429;28;19919;-76
2023/08/15 08:15:43;;;;;;;;;;;13.90;99.90;;;;;;5079602;27;19916;-73
2023/08/15 08:18:10;;;;;;;;;;;14.00;99.90;;;;;;5110124;28;19915;-71
2023/08/15 08:20:38;;;;;;;;;;;13.90;99.90;;;;;;5094517;28;20463;-72
2023/08/15 08:23:04;;;;;;;;;;;13.90;99.90;;;;;;5110852;28;19916;-73
2023/08/15 08:25:31;;;;;;;;;;;14.00;99.90;;;;;;5105158;28;19912;-71
2023/08/15 08:27:58;;;;;;;;;;;13.90;99.90;;;;;;5106360;28;19916;-73
2023/08/15 08:30:25;;;;;;;;;;;13.90;99.90;;;;;;5091779;28;19935;-71
2023/08/15 08:32:52;;;;;;;;;;;13.90;99.90;;;;;;5111481;27;19912;-69
2023/08/15 08:35:19;;;;;;;;;;;13.80;99.90;;;;;;5106576;28;19912;-69
2023/08/15 08:37:49;;;;;;;;;;;13.90;99.90;;;;;;5110888;28;20277;-68
2023/08/15 08:40:17;;;;;;;;;;;13.80;99.90;;;;;;5092203;28;19920;-69
2023/08/15 08:42:44;;;;;;;;;;;13.80;99.90;;;;;;5096362;28;19912;-70
2023/08/15 08:45:11;;;;;;;;;;;13.80;99.90;;;;;;5091911;28;19920;-70
2023/08/15 08:47:39;;;;;;;;;;;13.70;99.90;;;;;;5108889;28;20007;-72
2023/08/15 08:50:09;;;;;;;;;;;13.70;99.90;;;;;;5102147;28;19981;-69
2023/08/15 08:52:45;;;;;;;;;;;13.70;99.90;;;;;;5076347;28;20457;-69
2023/08/15 08:55:12;;;;;;;;;;;13.70;99.90;;;;;;5091429;28;20399;-72
2023/08/15 08:57:40;;;;;;;;;;;13.70;99.90;;;;;;5108171;28;19915;-72
2023/08/15 09:00:07;;;;;;;;;;;13.70;99.90;;;;;;5094613;28;19920;-70
2023/08/15 09:02:35;;;;;;;;;;;13.70;99.90;;;;;;5107346;28;19908;-68
2023/08/15 09:05:07;;;;;;;;;;;13.60;99.90;;;;;;5107853;28;20006;-70
2023/08/15 09:07:35;;;;;;;;;;;13.60;99.90;;;;;;5104825;28;20368;-69
2023/08/15 09:10:02;;;;;;;;;;;13.60;99.90;;;;;;5112283;28;19961;-71
2023/08/15 09:12:36;;;;;;;;;;;13.60;99.90;;;;;;5111764;28;19907;-72
2023/08/15 09:15:06;;;;;;;;;;;13.50;99.90;;;;;;5114292;28;19915;-69
2023/08/15 09:17:33;;;;;;;;;;;13.50;99.90;;;;;;5114773;28;19908;-70
2023/08/15 09:20:13;;;;;;;;;;;13.50;99.90;;;;;;5112315;28;19962;-73
2023/08/15 09:22:44;;;;;;;;;;;13.50;99.90;;;;;;5092468;28;19912;-69
2023/08/15 09:25:11;;;;;;;;;;;13.40;99.90;;;;;;5080724;28;19908;-67
2023/08/15 09:27:41;;;;;;;;;;;13.40;99.90;;;;;;5092438;28;19912;-72
2023/08/15 09:30:12;;;;;;;;;;;13.40;99.90;;;;;;5092118;28;19960;-69
2023/08/15 09:32:40;;;;;;;;;;;13.40;99.90;;;;;;5091604;28;19912;-71
2023/08/15 09:35:08;;;;;;;;;;;13.40;99.90;;;;;;5091839;28;20003;-69
2023/08/15 09:37:35;;;;;;;;;;;13.30;99.90;;;;;;5111028;28;19907;-67
2023/08/15 09:40:04;;;;;;;;;;;13.30;99.90;;;;;;5111649;28;19930;-68
2023/08/15 09:42:31;;;;;;;;;;;13.30;99.90;;;;;;5096325;28;20253;-71
2023/08/15 09:44:58;;;;;;;;;;;13.20;99.90;;;;;;5070326;28;19925;-74
2023/08/15 09:47:26;;;;;;;;;;;13.20;99.90;;;;;;5071144;28;19920;-74
2023/08/15 09:49:53;;;;;;;;;;;13.20;99.90;;;;;;5070747;28;19970;-70
2023/08/15 09:52:20;;;;;;;;;;;13.20;99.90;;;;;;5072479;28;19932;-69
2023/08/15 09:54:47;;;;;;;;;;;13.20;99.90;;;;;;5089974;28;19912;-72
2023/08/15 09:57:13;;;;;;;;;;;13.20;99.90;;;;;;5091020;28;19973;-69
2023/08/15 09:59:40;;;;;;;;;;;13.20;99.90;;;;;;5091829;28;19908;-66
2023/08/15 10:02:12;;;;;;;;;;;13.20;99.90;;;;;;5080697;28;19916;-68
2023/08/15 10:04:39;;;;;;;;;;;13.20;99.90;;;;;;5073149;28;19926;-71
2023/08/15 10:07:06;;;;;;;;;;;13.10;99.90;;;;;;5090989;28;19912;-69
2023/08/15 10:09:33;;;;;;;;;;;13.10;99.90;;;;;;5091618;28;20005;-67
2023/08/15 10:12:00;;;;;;;;;;;13.20;99.90;;;;;;5080456;28;19912;-65
2023/08/15 10:14:27;;;;;;;;;;;13.20;99.90;;;;;;5070882;28;19916;-66
2023/08/15 10:16:54;;;;;;;;;;;13.10;99.90;;;;;;5083687;28;19961;-74
2023/08/15 10:19:20;;;;;;;;;;;13.10;99.90;;;;;;5091259;28;19914;-68
2023/08/15 10:21:49;;;;;;;;;;;13.10;99.90;;;;;;5090520;28;20477;-71
2023/08/15 10:24:16;;;;;;;;;;;13.10;99.90;;;;;;5090518;28;19965;-66
2023/08/15 10:26:46;;;;;;;;;;;13.00;99.90;;;;;;5091361;28;19904;-67
2023/08/15 10:29:12;;;;;;;;;;;13.00;99.90;;;;;;5073258;28;19916;-65
2023/08/15 10:31:40;;;;;;;;;;;13.00;99.90;;;;;;5091156;28;19916;-68
2023/08/15 10:34:10;;;;;;;;;;;12.90;99.90;;;;;;5090922;28;19955;-65
2023/08/15 10:36:39;;;;;;;;;;;12.80;99.90;;;;;;5085963;28;19930;-71
2023/08/15 10:39:07;;;;;;;;;;;12.80;99.90;;;;;;5091158;28;19908;-70
2023/08/15 10:41:37;;;;;;;;;;;12.70;99.90;;;;;;5083748;28;19919;-66
2023/08/15 10:44:05;;;;;;;;;;;12.60;99.90;;;;;;5089633;28;20274;-73
2023/08/15 10:46:33;;;;;;;;;;;12.60;99.90;;;;;;5083525;28;20395;-67
2023/08/15 10:49:01;;;;;;;;;;;12.50;99.90;;;;;;5081890;28;19920;-69
2023/08/15 10:51:32;;;;;;;;;;;12.50;99.90;;;;;;5077227;28;19970;-66
2023/08/15 10:54:03;;;;;;;;;;;12.60;99.90;;;;;;5093618;28;19919;-69
2023/08/15 10:56:34;;;;;;;;;;;12.40;99.90;;;;;;5085730;28;19919;-71
2023/08/15 10:59:13;;;;;;;;;;;12.50;99.90;;;;;;5094790;28;19915;-71
2023/08/15 11:01:41;;;;;;;;;;;12.40;99.90;;;;;;5085160;28;20377;-69
2023/08/15 11:04:09;;;;;;;;;;;12.50;99.90;;;;;;5076655;28;19921;-69
2023/08/15 11:06:46;;;;;;;;;;;12.40;99.90;;;;;;5094014;28;19916;-69
2023/08/15 11:09:13;;;;;;;;;;;12.50;99.90;;;;;;5091897;28;20391;-71
2023/08/15 11:11:40;;;;;;;;;;;12.40;99.90;;;;;;5077991;28;19912;-73
2023/08/15 11:14:17;;;;;;;;;;;12.30;99.90;;;;;;5093320;28;19908;-68
2023/08/15 11:16:49;;;;;;;;;;;12.40;99.90;;;;;;5090517;28;19912;-69
2023/08/15 11:19:17;;;;;;;;;;;12.30;99.90;;;;;;5094580;28;19981;-68
2023/08/15 11:21:44;;;;;;;;;;;12.30;99.90;;;;;;5089382;27;20369;-67
2023/08/15 11:24:11;;;;;;;;;;;12.30;99.90;;;;;;5090302;28;19919;-64
2023/08/15 11:26:38;;;;;;;;;;;12.30;99.90;;;;;;5089624;28;19965;-63
2023/08/15 11:29:04;;;;;;;;;;;12.20;99.90;;;;;;5077579;28;19923;-63
2023/08/15 11:31:31;;;;;;;;;;;12.10;99.90;;;;;;5077312;28;19934;-64
2023/08/15 11:34:00;;;;;;;;;;;12.10;99.90;;;;;;5091204;28;19912;-64
2023/08/15 11:36:27;;;;;;;;;;;12.20;99.90;;;;;;5091043;28;19908;-62
2023/08/15 11:38:54;;;;;;;;;;;12.30;99.90;;;;;;5092893;28;19956;-63
2023/08/15 11:41:20;;;;;;;;;;;12.20;99.90;;;;;;5091854;28;19953;-65
2023/08/15 11:43:47;;;;;;;;;;;12.30;99.90;;;;;;5102383;28;19971;-63
2023/08/15 11:46:14;;;;;;;;;;;12.30;99.90;;;;;;5108204;28;19919;-63
2023/08/15 11:48:45;;;;;;;;;;;12.30;99.90;;;;;;5113974;28;20015;-63
2023/08/15 11:51:11;;;;;;;;;;;12.20;99.90;;;;;;5095857;28;19935;-62
2023/08/15 11:53:38;;;;;;;;;;;12.20;99.90;;;;;;5114000;28;19953;-63
2023/08/15 11:56:05;;;;;;;;;;;12.30;99.90;;;;;;5085907;28;19927;-64
2023/08/15 11:58:32;;;;;;;;;;;12.20;99.90;;;;;;5112700;28;19953;-65
2023/08/15 12:01:06;;;;;;;;;;;12.20;99.90;;;;;;5095868;28;19915;-62
2023/08/15 12:03:44;;;;;;;;;;;12.30;99.90;;;;;;5113894;28;19908;-62
2023/08/15 12:06:18;;;;;;;;;;;12.30;99.90;;;;;;5098545;28;19939;-63
2023/08/15 12:08:46;;;;;;;;;;;12.30;99.90;;;;;;5093081;28;19916;-63
2023/08/15 12:11:13;;;;;;;;;;;12.40;99.90;;;;;;5093696;28;19939;-65
2023/08/15 12:13:40;;;;;;;;;;;12.40;99.90;;;;;;5093572;28;19908;-64
2023/08/15 12:16:08;;;;;;;;;;;12.40;99.90;;;;;;5101847;28;19912;-63
2023/08/15 12:18:41;;;;;;;;;;;12.40;99.90;;;;;;5092940;28;19912;-67
2023/08/15 12:21:08;;;;;;;;;;;12.40;99.90;;;;;;5074633;28;19931;-62
2023/08/15 12:23:35;;;;;;;;;;;12.50;99.90;;;;;;5093211;28;20045;-61
2023/08/15 12:26:02;;;;;;;;;;;12.50;99.90;;;;;;5096195;28;19912;-64
2023/08/15 12:28:28;;;;;;;;;;;12.40;99.90;;;;;;5092573;28;20013;-65
2023/08/15 12:30:55;;;;;;;;;;;12.30;99.90;;;;;;5093515;28;19914;-64
2023/08/15 12:33:22;;;;;;;;;;;12.30;99.90;;;;;;5074422;28;19922;-66
2023/08/15 12:35:49;;;;;;;;;;;12.20;99.90;;;;;;5100622;28;19919;-64
2023/08/15 12:38:16;;;;;;;;;;;12.20;99.90;;;;;;5092672;28;19994;-67
2023/08/15 12:40:42;;;;;;;;;;;12.10;99.90;;;;;;5092678;28;19920;-65
2023/08/15 12:43:09;;;;;;;;;;;12.00;99.90;;;;;;5094021;28;19912;-65
2023/08/15 12:45:36;;;;;;;;;;;12.00;99.90;;;;;;5076740;28;20030;-67
2023/08/15 12:48:03;;;;;;;;;;;12.00;99.90;;;;;;5104335;28;19972;-62
2023/08/15 12:50:29;;;;;;;;;;;11.90;99.90;;;;;;5112770;28;20410;-66
2023/08/15 12:52:56;;;;;;;;;;;11.80;99.90;;;;;;5113074;28;19915;-66
2023/08/15 12:55:23;;;;;;;;;;;11.80;99.90;;;;;;5110259;28;19931;-62
2023/08/15 12:57:49;;;;;;;;;;;11.80;99.90;;;;;;5112673;28;20465;-68
2023/08/15 13:00:16;;;;;;;;;;;11.80;99.90;;;;;;5094714;28;19943;-66
2023/08/15 13:02:43;;;;;;;;;;;11.80;99.90;;;;;;5112641;28;20274;-68
2023/08/15 13:05:10;;;;;;;;;;;11.60;99.90;;;;;;5111855;28;19962;-67
2023/08/15 13:07:37;;;;;;;;;;;11.60;99.90;;;;;;5111497;28;20341;-68
2023/08/15 13:10:04;;;;;;;;;;;11.60;99.90;;;;;;5105576;28;20018;-65
2023/08/15 13:12:30;;;;;;;;;;;11.60;99.90;;;;;;5092662;28;20331;-66
2023/08/15 13:14:57;;;;;;;;;;;11.60;99.90;;;;;;5077711;28;19911;-67
2023/08/15 13:17:24;;;;;;;;;;;11.50;99.90;;;;;;5109369;28;19968;-67
2023/08/15 13:19:50;;;;;;;;;;;11.50;99.90;;;;;;5093852;28;19919;-69
2023/08/15 13:22:18;;;;;;;;;;;11.50;99.90;;;;;;5094839;28;20364;-66
2023/08/15 13:24:45;;;;;;;;;;;11.50;99.90;;;;;;5112684;28;20533;-66
2023/08/15 13:27:12;;;;;;;;;;;11.50;99.90;;;;;;5104173;28;19957;-66
2023/08/15 13:29:39;;;;;;;;;;;11.40;99.90;;;;;;5073622;28;19920;-66
2023/08/15 13:32:05;;;;;;;;;;;11.50;99.90;;;;;;5094232;28;19954;-64
2023/08/15 13:34:32;;;;;;;;;;;11.50;99.90;;;;;;5094302;28;19922;-65
2023/08/15 13:36:59;;;;;;;;;;;11.50;99.90;;;;;;5105116;28;19911;-62
2023/08/15 13:39:25;;;;;;;;;;;11.40;99.90;;;;;;5102639;28;20428;-67
2023/08/15 13:41:52;;;;;;;;;;;11.40;99.90;;;;;;5107470;28;20369;-68
2023/08/15 13:44:19;;;;;;;;;;;11.40;99.90;;;;;;5092045;28;19920;-65
2023/08/15 13:46:45;;;;;;;;;;;11.40;99.90;;;;;;5103546;28;19907;-65
2023/08/15 13:49:12;;;;;;;;;;;11.30;99.90;;;;;;5111875;28;19959;-65
2023/08/15 13:51:39;;;;;;;;;;;11.30;99.90;;;;;;5112181;28;19908;-63
2023/08/15 13:54:06;;;;;;;;;;;11.30;99.90;;;;;;5112365;28;19908;-60
2023/08/15 13:56:32;;;;;;;;;;;11.30;99.90;;;;;;5097551;28;19938;-62
2023/08/15 13:58:59;;;;;;;;;;;11.30;99.90;;;;;;5091342;28;19919;-62
2023/08/15 14:01:26;;;;;;;;;;;11.30;99.90;;;;;;5095384;28;19919;-63
2023/08/15 14:03:53;;;;;;;;;;;11.30;99.90;;;;;;5111897;28;19912;-62
2023/08/15 14:06:19;;;;;;;;;;;11.40;99.90;;;;;;5102950;28;19959;-61
2023/08/15 14:08:46;;;;;;;;;;;11.40;99.90;;;;;;5094927;28;19924;-63
2023/08/15 14:11:13;;;;;;;;;;;11.40;99.90;;;;;;5111112;28;19972;-63
2023/08/15 14:13:40;;;;;;;;;;;11.40;99.90;;;;;;5112243;28;20420;-63
2023/08/15 14:16:07;;;;;;;;;;;11.50;99.90;;;;;;5110731;28;20007;-65
2023/08/15 14:18:34;;;;;;;;;;;11.40;99.90;;;;;;5111652;28;19908;-62
2023/08/15 14:21:02;;;;;;;;;;;11.50;99.90;;;;;;5112271;28;19954;-67